sensor_id;sensor_type;location;lat;lon;timestamp;P1;durP1;ratioP1;P2;durP2;ratioP2
5754;SDS011;2902;42.130;24.732;2024-03-23T00:55:19;13.70;;;10.57;;
5754;SDS011;2902;42.130;24.732;2024-03-23T00:57:45;17.57;;;11.00;;
5754;SDS011;2902;42.130;24.732;2024-03-23T01:00:12;16.77;;;10.03;;
5754;SDS011;2902;42.130;24.732;2024-03-23T01:02:39;15.60;;;11.60;;
5754;SDS011;2902;42.130;24.732;2024-03-23T01:05:05;14.50;;;11.07;;
5754;SDS011;2902;42.130;24.732;2024-03-23T01:10:17;14.47;;;11.23;;
5754;SDS011;2902;42.130;24.732;2024-03-23T01:12:43;13.73;;;10.23;;
5754;SDS011;2902;42.130;24.732;2024-03-23T01:15:09;16.80;;;10.57;;
5754;SDS011;2902;42.130;24.732;2024-03-23T01:17:35;14.00;;;10.30;;
5754;SDS011;2902;42.130;24.732;2024-03-23T01:20:02;13.70;;;10.77;;
5754;SDS011;2902;42.130;24.732;2024-03-23T01:22:29;13.50;;;10.53;;
5754;SDS011;2902;42.130;24.732;2024-03-23T01:24:56;13.60;;;11.00;;
5754;SDS011;2902;42.130;24.732;2024-03-23T01:27:23;18.97;;;10.73;;
5754;SDS011;2902;42.130;24.732;2024-03-23T01:29:50;16.67;;;9.63;;
5754;SDS011;2902;42.130;24.732;2024-03-23T01:32:17;17.40;;;10.13;;
5754;SDS011;2902;42.130;24.732;2024-03-23T01:34:46;13.20;;;10.47;;
5754;SDS011;2902;42.130;24.732;2024-03-23T01:37:20;15.73;;;11.70;;
5754;SDS011;2902;42.130;24.732;2024-03-23T01:39:47;14.10;;;11.13;;
5754;SDS011;2902;42.130;24.732;2024-03-23T01:42:12;14.30;;;9.80;;
5754;SDS011;2902;42.130;24.732;2024-03-23T01:44:40;11.27;;;9.70;;
5754;SDS011;2902;42.130;24.732;2024-03-23T01:47:06;12.50;;;10.47;;
5754;SDS011;2902;42.130;24.732;2024-03-23T01:49:33;12.90;;;9.37;;
5754;SDS011;2902;42.130;24.732;2024-03-23T01:51:59;15.90;;;10.80;;
5754;SDS011;2902;42.130;24.732;2024-03-23T01:54:26;13.90;;;9.17;;
5754;SDS011;2902;42.130;24.732;2024-03-23T01:56:52;13.10;;;9.97;;
5754;SDS011;2902;42.130;24.732;2024-03-23T01:59:20;13.07;;;9.30;;
5754;SDS011;2902;42.130;24.732;2024-03-23T02:01:47;14.83;;;9.70;;
5754;SDS011;2902;42.130;24.732;2024-03-23T02:04:14;9.53;;;8.60;;
5754;SDS011;2902;42.130;24.732;2024-03-23T02:06:40;15.47;;;9.97;;
5754;SDS011;2902;42.130;24.732;2024-03-23T02:09:06;12.17;;;8.93;;
5754;SDS011;2902;42.130;24.732;2024-03-23T02:11:32;10.30;;;9.07;;
5754;SDS011;2902;42.130;24.732;2024-03-23T02:13:59;11.97;;;9.10;;
5754;SDS011;2902;42.130;24.732;2024-03-23T02:16:25;10.30;;;9.40;;
5754;SDS011;2902;42.130;24.732;2024-03-23T02:18:53;12.57;;;8.83;;
5754;SDS011;2902;42.130;24.732;2024-03-23T02:21:18;15.30;;;9.97;;
5754;SDS011;2902;42.130;24.732;2024-03-23T02:23:47;11.07;;;9.87;;
5754;SDS011;2902;42.130;24.732;2024-03-23T02:26:12;11.07;;;9.47;;
5754;SDS011;2902;42.130;24.732;2024-03-23T02:28:40;11.47;;;8.73;;
5754;SDS011;2902;42.130;24.732;2024-03-23T02:31:06;13.97;;;9.37;;
5754;SDS011;2902;42.130;24.732;2024-03-23T02:33:32;12.23;;;9.87;;
5754;SDS011;2902;42.130;24.732;2024-03-23T02:35:59;13.07;;;9.80;;
5754;SDS011;2902;42.130;24.732;2024-03-23T02:38:26;15.83;;;10.07;;
5754;SDS011;2902;42.130;24.732;2024-03-23T02:40:53;16.10;;;10.17;;
5754;SDS011;2902;42.130;24.732;2024-03-23T02:43:20;11.83;;;10.40;;
5754;SDS011;2902;42.130;24.732;2024-03-23T02:45:46;16.07;;;10.07;;
5754;SDS011;2902;42.130;24.732;2024-03-23T02:48:12;16.30;;;10.93;;
5754;SDS011;2902;42.130;24.732;2024-03-23T02:50:38;15.00;;;8.93;;
5754;SDS011;2902;42.130;24.732;2024-03-23T02:53:05;12.77;;;8.77;;
5754;SDS011;2902;42.130;24.732;2024-03-23T02:55:31;15.90;;;10.63;;
5754;SDS011;2902;42.130;24.732;2024-03-23T02:57:59;19.70;;;12.33;;
5754;SDS011;2902;42.130;24.732;2024-03-23T03:00:27;34.97;;;17.97;;
5754;SDS011;2902;42.130;24.732;2024-03-23T03:02:54;37.93;;;19.93;;
5754;SDS011;2902;42.130;24.732;2024-03-23T03:05:20;23.33;;;13.20;;
5754;SDS011;2902;42.130;24.732;2024-03-23T03:07:47;13.53;;;9.37;;
5754;SDS011;2902;42.130;24.732;2024-03-23T03:10:13;7.70;;;6.83;;
5754;SDS011;2902;42.130;24.732;2024-03-23T03:12:39;8.13;;;7.37;;
5754;SDS011;2902;42.130;24.732;2024-03-23T03:15:07;8.33;;;7.07;;
5754;SDS011;2902;42.130;24.732;2024-03-23T03:17:35;7.63;;;6.87;;
5754;SDS011;2902;42.130;24.732;2024-03-23T03:20:01;7.50;;;6.83;;
5754;SDS011;2902;42.130;24.732;2024-03-23T03:22:29;8.10;;;7.40;;
5754;SDS011;2902;42.130;24.732;2024-03-23T03:24:55;8.40;;;7.60;;
5754;SDS011;2902;42.130;24.732;2024-03-23T03:27:22;11.43;;;9.00;;
5754;SDS011;2902;42.130;24.732;2024-03-23T03:29:48;14.13;;;9.47;;
5754;SDS011;2902;42.130;24.732;2024-03-23T03:32:16;10.00;;;9.00;;
5754;SDS011;2902;42.130;24.732;2024-03-23T03:34:42;11.10;;;9.90;;
5754;SDS011;2902;42.130;24.732;2024-03-23T03:37:08;15.77;;;9.47;;
5754;SDS011;2902;42.130;24.732;2024-03-23T03:39:34;11.40;;;10.33;;
5754;SDS011;2902;42.130;24.732;2024-03-23T03:42:02;14.93;;;10.20;;
5754;SDS011;2902;42.130;24.732;2024-03-23T03:44:31;17.57;;;12.53;;
5754;SDS011;2902;42.130;24.732;2024-03-23T03:46:58;21.43;;;12.23;;
5754;SDS011;2902;42.130;24.732;2024-03-23T03:49:25;15.00;;;10.43;;
5754;SDS011;2902;42.130;24.732;2024-03-23T03:51:53;16.67;;;9.77;;
5754;SDS011;2902;42.130;24.732;2024-03-23T03:54:19;15.40;;;10.27;;
5754;SDS011;2902;42.130;24.732;2024-03-23T03:56:46;13.50;;;10.13;;
5754;SDS011;2902;42.130;24.732;2024-03-23T03:59:12;14.37;;;10.53;;
5754;SDS011;2902;42.130;24.732;2024-03-23T04:01:39;12.03;;;10.07;;
5754;SDS011;2902;42.130;24.732;2024-03-23T04:04:05;19.30;;;11.53;;
5754;SDS011;2902;42.130;24.732;2024-03-23T04:06:33;18.37;;;12.53;;
5754;SDS011;2902;42.130;24.732;2024-03-23T04:08:59;32.40;;;18.50;;
5754;SDS011;2902;42.130;24.732;2024-03-23T04:11:26;27.40;;;13.13;;
5754;SDS011;2902;42.130;24.732;2024-03-23T04:13:51;14.00;;;11.83;;
5754;SDS011;2902;42.130;24.732;2024-03-23T04:16:24;16.60;;;10.67;;
5754;SDS011;2902;42.130;24.732;2024-03-23T04:18:51;19.20;;;12.27;;
5754;SDS011;2902;42.130;24.732;2024-03-23T04:21:19;29.50;;;15.40;;
5754;SDS011;2902;42.130;24.732;2024-03-23T04:23:46;22.70;;;14.60;;
5754;SDS011;2902;42.130;24.732;2024-03-23T04:26:13;22.90;;;13.80;;
5754;SDS011;2902;42.130;24.732;2024-03-23T04:28:40;12.67;;;10.97;;
5754;SDS011;2902;42.130;24.732;2024-03-23T04:31:05;18.67;;;10.70;;
5754;SDS011;2902;42.130;24.732;2024-03-23T04:33:32;14.30;;;10.97;;
5754;SDS011;2902;42.130;24.732;2024-03-23T04:35:58;12.40;;;10.23;;
5754;SDS011;2902;42.130;24.732;2024-03-23T04:38:25;13.63;;;10.07;;
5754;SDS011;2902;42.130;24.732;2024-03-23T04:40:56;13.30;;;8.93;;
5754;SDS011;2902;42.130;24.732;2024-03-23T04:43:23;9.50;;;8.37;;
5754;SDS011;2902;42.130;24.732;2024-03-23T04:45:49;14.23;;;9.27;;
5754;SDS011;2902;42.130;24.732;2024-03-23T04:48:16;11.33;;;8.13;;
5754;SDS011;2902;42.130;24.732;2024-03-23T04:50:43;20.27;;;9.13;;
5754;SDS011;2902;42.130;24.732;2024-03-23T04:53:09;15.97;;;9.03;;
5754;SDS011;2902;42.130;24.732;2024-03-23T04:55:36;13.93;;;9.13;;
5754;SDS011;2902;42.130;24.732;2024-03-23T04:58:04;16.90;;;8.97;;
5754;SDS011;2902;42.130;24.732;2024-03-23T05:00:30;10.10;;;8.37;;
5754;SDS011;2902;42.130;24.732;2024-03-23T05:02:57;19.33;;;9.37;;
5754;SDS011;2902;42.130;24.732;2024-03-23T05:05:22;14.33;;;8.53;;
5754;SDS011;2902;42.130;24.732;2024-03-23T05:07:49;17.53;;;10.80;;
5754;SDS011;2902;42.130;24.732;2024-03-23T05:10:15;15.63;;;12.13;;
5754;SDS011;2902;42.130;24.732;2024-03-23T05:12:42;21.07;;;10.47;;
5754;SDS011;2902;42.130;24.732;2024-03-23T05:15:09;9.20;;;8.23;;
5754;SDS011;2902;42.130;24.732;2024-03-23T05:17:36;9.53;;;8.50;;
5754;SDS011;2902;42.130;24.732;2024-03-23T05:20:03;9.63;;;8.67;;
5754;SDS011;2902;42.130;24.732;2024-03-23T05:22:34;11.83;;;9.23;;
5754;SDS011;2902;42.130;24.732;2024-03-23T05:25:00;24.07;;;13.50;;
5754;SDS011;2902;42.130;24.732;2024-03-23T05:27:29;12.03;;;8.43;;
5754;SDS011;2902;42.130;24.732;2024-03-23T05:29:55;9.33;;;7.33;;
5754;SDS011;2902;42.130;24.732;2024-03-23T05:32:23;9.50;;;7.50;;
5754;SDS011;2902;42.130;24.732;2024-03-23T05:34:49;9.60;;;8.67;;
5754;SDS011;2902;42.130;24.732;2024-03-23T05:37:20;8.57;;;7.70;;
5754;SDS011;2902;42.130;24.732;2024-03-23T05:39:46;9.73;;;8.00;;
5754;SDS011;2902;42.130;24.732;2024-03-23T05:42:14;24.80;;;12.63;;
5754;SDS011;2902;42.130;24.732;2024-03-23T05:44:42;30.37;;;18.40;;
5754;SDS011;2902;42.130;24.732;2024-03-23T05:47:08;13.10;;;9.50;;
5754;SDS011;2902;42.130;24.732;2024-03-23T05:49:37;15.57;;;10.07;;
5754;SDS011;2902;42.130;24.732;2024-03-23T05:52:03;10.03;;;7.67;;
5754;SDS011;2902;42.130;24.732;2024-03-23T05:54:29;8.47;;;7.00;;
5754;SDS011;2902;42.130;24.732;2024-03-23T05:56:55;7.17;;;6.47;;
5754;SDS011;2902;42.130;24.732;2024-03-23T05:59:22;7.30;;;6.50;;
5754;SDS011;2902;42.130;24.732;2024-03-23T06:01:48;14.80;;;10.53;;
5754;SDS011;2902;42.130;24.732;2024-03-23T06:04:14;7.73;;;7.20;;
5754;SDS011;2902;42.130;24.732;2024-03-23T06:06:42;9.87;;;7.20;;
5754;SDS011;2902;42.130;24.732;2024-03-23T06:09:08;9.57;;;7.57;;
5754;SDS011;2902;42.130;24.732;2024-03-23T06:11:34;7.33;;;5.93;;
5754;SDS011;2902;42.130;24.732;2024-03-23T06:14:01;7.67;;;6.73;;
5754;SDS011;2902;42.130;24.732;2024-03-23T06:16:26;7.43;;;6.83;;
5754;SDS011;2902;42.130;24.732;2024-03-23T06:18:54;6.43;;;5.90;;
5754;SDS011;2902;42.130;24.732;2024-03-23T06:21:20;8.40;;;7.47;;
5754;SDS011;2902;42.130;24.732;2024-03-23T06:23:51;9.43;;;7.03;;
5754;SDS011;2902;42.130;24.732;2024-03-23T06:26:17;8.47;;;7.73;;
5754;SDS011;2902;42.130;24.732;2024-03-23T06:28:44;8.03;;;7.20;;
5754;SDS011;2902;42.130;24.732;2024-03-23T06:31:11;8.13;;;6.97;;
5754;SDS011;2902;42.130;24.732;2024-03-23T06:33:37;6.93;;;6.30;;
5754;SDS011;2902;42.130;24.732;2024-03-23T06:36:04;8.40;;;6.90;;
5754;SDS011;2902;42.130;24.732;2024-03-23T06:38:30;7.23;;;6.73;;
5754;SDS011;2902;42.130;24.732;2024-03-23T06:40:59;11.83;;;7.50;;
5754;SDS011;2902;42.130;24.732;2024-03-23T06:43:27;11.87;;;7.47;;
5754;SDS011;2902;42.130;24.732;2024-03-23T06:45:54;7.30;;;6.77;;
5754;SDS011;2902;42.130;24.732;2024-03-23T06:48:20;8.40;;;6.97;;
5754;SDS011;2902;42.130;24.732;2024-03-23T06:50:46;9.17;;;7.30;;
5754;SDS011;2902;42.130;24.732;2024-03-23T06:53:12;7.57;;;6.63;;
5754;SDS011;2902;42.130;24.732;2024-03-23T06:55:39;7.73;;;7.03;;
5754;SDS011;2902;42.130;24.732;2024-03-23T06:58:07;7.63;;;7.03;;
5754;SDS011;2902;42.130;24.732;2024-03-23T07:00:35;10.47;;;7.63;;
5754;SDS011;2902;42.130;24.732;2024-03-23T07:03:00;7.60;;;6.50;;
5754;SDS011;2902;42.130;24.732;2024-03-23T07:05:28;14.43;;;7.27;;
5754;SDS011;2902;42.130;24.732;2024-03-23T07:07:54;7.43;;;6.83;;
5754;SDS011;2902;42.130;24.732;2024-03-23T07:10:21;8.87;;;7.97;;
5754;SDS011;2902;42.130;24.732;2024-03-23T07:12:47;8.57;;;7.03;;
5754;SDS011;2902;42.130;24.732;2024-03-23T07:15:15;7.70;;;7.00;;
5754;SDS011;2902;42.130;24.732;2024-03-23T07:17:41;8.93;;;7.20;;
5754;SDS011;2902;42.130;24.732;2024-03-23T07:20:08;8.00;;;7.20;;
5754;SDS011;2902;42.130;24.732;2024-03-23T07:22:35;7.60;;;7.07;;
5754;SDS011;2902;42.130;24.732;2024-03-23T07:25:02;10.37;;;7.33;;
5754;SDS011;2902;42.130;24.732;2024-03-23T07:27:28;11.37;;;7.43;;
5754;SDS011;2902;42.130;24.732;2024-03-23T07:29:55;11.83;;;7.73;;
5754;SDS011;2902;42.130;24.732;2024-03-23T07:32:22;7.97;;;7.17;;
5754;SDS011;2902;42.130;24.732;2024-03-23T07:34:48;8.00;;;7.37;;
5754;SDS011;2902;42.130;24.732;2024-03-23T07:37:14;9.33;;;7.70;;
5754;SDS011;2902;42.130;24.732;2024-03-23T07:39:41;9.17;;;7.33;;
5754;SDS011;2902;42.130;24.732;2024-03-23T07:42:07;10.47;;;7.30;;
5754;SDS011;2902;42.130;24.732;2024-03-23T07:44:33;18.20;;;7.57;;
5754;SDS011;2902;42.130;24.732;2024-03-23T07:47:00;8.07;;;7.20;;
5754;SDS011;2902;42.130;24.732;2024-03-23T07:49:28;7.67;;;6.93;;
5754;SDS011;2902;42.130;24.732;2024-03-23T07:51:54;17.80;;;8.03;;
5754;SDS011;2902;42.130;24.732;2024-03-23T07:54:21;10.30;;;6.87;;
5754;SDS011;2902;42.130;24.732;2024-03-23T07:56:47;8.57;;;6.70;;
5754;SDS011;2902;42.130;24.732;2024-03-23T07:59:14;12.30;;;7.00;;
5754;SDS011;2902;42.130;24.732;2024-03-23T08:01:39;8.37;;;7.57;;
5754;SDS011;2902;42.130;24.732;2024-03-23T08:04:06;13.33;;;7.87;;
5754;SDS011;2902;42.130;24.732;2024-03-23T08:06:33;8.33;;;6.87;;
5754;SDS011;2902;42.130;24.732;2024-03-23T08:09:00;10.93;;;8.37;;
5754;SDS011;2902;42.130;24.732;2024-03-23T08:11:26;8.90;;;6.77;;
5754;SDS011;2902;42.130;24.732;2024-03-23T08:13:52;9.80;;;6.70;;
5754;SDS011;2902;42.130;24.732;2024-03-23T08:16:18;9.97;;;7.03;;
5754;SDS011;2902;42.130;24.732;2024-03-23T08:18:45;6.20;;;5.70;;
5754;SDS011;2902;42.130;24.732;2024-03-23T08:21:11;8.37;;;7.60;;
5754;SDS011;2902;42.130;24.732;2024-03-23T08:23:39;7.27;;;6.60;;
5754;SDS011;2902;42.130;24.732;2024-03-23T08:26:05;7.30;;;6.60;;
5754;SDS011;2902;42.130;24.732;2024-03-23T08:28:33;6.27;;;5.67;;
5754;SDS011;2902;42.130;24.732;2024-03-23T08:31:00;6.10;;;5.60;;
5754;SDS011;2902;42.130;24.732;2024-03-23T08:33:28;6.87;;;6.30;;
5754;SDS011;2902;42.130;24.732;2024-03-23T08:35:55;10.50;;;6.83;;
5754;SDS011;2902;42.130;24.732;2024-03-23T08:38:23;6.37;;;5.77;;
5754;SDS011;2902;42.130;24.732;2024-03-23T08:40:57;9.20;;;6.60;;
5754;SDS011;2902;42.130;24.732;2024-03-23T08:43:24;10.20;;;5.20;;
5754;SDS011;2902;42.130;24.732;2024-03-23T08:45:50;18.50;;;6.37;;
5754;SDS011;2902;42.130;24.732;2024-03-23T08:48:17;7.47;;;5.30;;
5754;SDS011;2902;42.130;24.732;2024-03-23T08:50:45;6.57;;;5.97;;
5754;SDS011;2902;42.130;24.732;2024-03-23T08:53:12;7.93;;;5.60;;
5754;SDS011;2902;42.130;24.732;2024-03-23T08:55:38;11.97;;;5.27;;
5754;SDS011;2902;42.130;24.732;2024-03-23T08:58:06;5.73;;;4.97;;
5754;SDS011;2902;42.130;24.732;2024-03-23T09:00:33;5.30;;;4.77;;
5754;SDS011;2902;42.130;24.732;2024-03-23T09:03:00;8.80;;;4.53;;
5754;SDS011;2902;42.130;24.732;2024-03-23T09:05:27;8.93;;;4.90;;
5754;SDS011;2902;42.130;24.732;2024-03-23T09:07:55;12.53;;;5.77;;
5754;SDS011;2902;42.130;24.732;2024-03-23T09:10:21;5.70;;;5.20;;
5754;SDS011;2902;42.130;24.732;2024-03-23T09:12:48;19.07;;;6.00;;
5754;SDS011;2902;42.130;24.732;2024-03-23T09:15:15;6.60;;;5.60;;
5754;SDS011;2902;42.130;24.732;2024-03-23T09:17:42;6.93;;;6.10;;
5754;SDS011;2902;42.130;24.732;2024-03-23T09:20:08;9.80;;;6.80;;
5754;SDS011;2902;42.130;24.732;2024-03-23T09:22:35;8.70;;;6.93;;
5754;SDS011;2902;42.130;24.732;2024-03-23T09:25:01;12.63;;;7.87;;
5754;SDS011;2902;42.130;24.732;2024-03-23T09:27:29;7.97;;;7.20;;
5754;SDS011;2902;42.130;24.732;2024-03-23T09:29:55;30.47;;;8.40;;
5754;SDS011;2902;42.130;24.732;2024-03-23T09:32:23;14.70;;;6.90;;
5754;SDS011;2902;42.130;24.732;2024-03-23T09:34:49;12.73;;;6.07;;
5754;SDS011;2902;42.130;24.732;2024-03-23T09:37:16;8.17;;;6.70;;
5754;SDS011;2902;42.130;24.732;2024-03-23T09:39:41;8.70;;;6.47;;
5754;SDS011;2902;42.130;24.732;2024-03-23T09:42:08;22.60;;;8.40;;
5754;SDS011;2902;42.130;24.732;2024-03-23T09:44:35;8.63;;;7.00;;
5754;SDS011;2902;42.130;24.732;2024-03-23T09:47:02;16.80;;;7.83;;
5754;SDS011;2902;42.130;24.732;2024-03-23T09:49:29;6.70;;;6.10;;
5754;SDS011;2902;42.130;24.732;2024-03-23T09:51:57;8.60;;;6.80;;
5754;SDS011;2902;42.130;24.732;2024-03-23T09:54:24;6.90;;;6.30;;
5754;SDS011;2902;42.130;24.732;2024-03-23T09:56:50;8.00;;;7.27;;
5754;SDS011;2902;42.130;24.732;2024-03-23T09:59:16;14.13;;;6.47;;
5754;SDS011;2902;42.130;24.732;2024-03-23T10:01:43;12.60;;;6.10;;
5754;SDS011;2902;42.130;24.732;2024-03-23T10:04:09;6.77;;;6.10;;
5754;SDS011;2902;42.130;24.732;2024-03-23T10:06:37;11.63;;;6.87;;
5754;SDS011;2902;42.130;24.732;2024-03-23T10:09:03;7.97;;;6.47;;
5754;SDS011;2902;42.130;24.732;2024-03-23T10:11:43;11.60;;;6.90;;
5754;SDS011;2902;42.130;24.732;2024-03-23T10:14:14;7.67;;;6.77;;
5754;SDS011;2902;42.130;24.732;2024-03-23T10:16:57;7.80;;;7.10;;
5754;SDS011;2902;42.130;24.732;2024-03-23T10:19:38;9.90;;;6.67;;
5754;SDS011;2902;42.130;24.732;2024-03-23T10:22:07;9.17;;;6.30;;
5754;SDS011;2902;42.130;24.732;2024-03-23T10:24:34;7.17;;;6.47;;
5754;SDS011;2902;42.130;24.732;2024-03-23T10:27:01;7.53;;;6.03;;
5754;SDS011;2902;42.130;24.732;2024-03-23T10:29:26;6.40;;;5.80;;
5754;SDS011;2902;42.130;24.732;2024-03-23T10:31:53;7.77;;;6.27;;
5754;SDS011;2902;42.130;24.732;2024-03-23T10:34:32;6.53;;;5.80;;
5754;SDS011;2902;42.130;24.732;2024-03-23T10:36:59;9.67;;;5.93;;
5754;SDS011;2902;42.130;24.732;2024-03-23T10:39:28;6.23;;;5.83;;
5754;SDS011;2902;42.130;24.732;2024-03-23T10:41:56;6.13;;;5.73;;
5754;SDS011;2902;42.130;24.732;2024-03-23T10:44:23;5.83;;;5.37;;
5754;SDS011;2902;42.130;24.732;2024-03-23T10:46:54;5.87;;;5.40;;
5754;SDS011;2902;42.130;24.732;2024-03-23T10:49:24;7.97;;;5.30;;
5754;SDS011;2902;42.130;24.732;2024-03-23T10:51:52;5.60;;;5.13;;
5754;SDS011;2902;42.130;24.732;2024-03-23T10:54:18;8.87;;;5.80;;
5754;SDS011;2902;42.130;24.732;2024-03-23T10:56:47;6.03;;;4.63;;
5754;SDS011;2902;42.130;24.732;2024-03-23T10:59:16;5.57;;;5.07;;
5754;SDS011;2902;42.130;24.732;2024-03-23T11:01:53;5.73;;;5.33;;
5754;SDS011;2902;42.130;24.732;2024-03-23T11:04:29;5.13;;;4.67;;
5754;SDS011;2902;42.130;24.732;2024-03-23T11:06:56;5.13;;;4.80;;
5754;SDS011;2902;42.130;24.732;2024-03-23T11:09:40;7.50;;;5.47;;
5754;SDS011;2902;42.130;24.732;2024-03-23T11:12:30;5.33;;;4.93;;
5754;SDS011;2902;42.130;24.732;2024-03-23T11:14:59;5.40;;;5.00;;
5754;SDS011;2902;42.130;24.732;2024-03-23T11:17:27;4.83;;;4.40;;
5754;SDS011;2902;42.130;24.732;2024-03-23T11:19:54;5.20;;;4.67;;
5754;SDS011;2902;42.130;24.732;2024-03-23T11:22:37;7.80;;;5.03;;
5754;SDS011;2902;42.130;24.732;2024-03-23T11:25:11;5.30;;;4.90;;
5754;SDS011;2902;42.130;24.732;2024-03-23T11:27:44;4.73;;;4.43;;
5754;SDS011;2902;42.130;24.732;2024-03-23T11:30:13;5.10;;;4.67;;
5754;SDS011;2902;42.130;24.732;2024-03-23T11:32:42;6.60;;;5.67;;
5754;SDS011;2902;42.130;24.732;2024-03-23T11:35:08;4.90;;;4.50;;
5754;SDS011;2902;42.130;24.732;2024-03-23T11:37:36;5.60;;;5.10;;
5754;SDS011;2902;42.130;24.732;2024-03-23T11:40:16;5.80;;;4.70;;
5754;SDS011;2902;42.130;24.732;2024-03-23T11:42:45;4.60;;;4.30;;
5754;SDS011;2902;42.130;24.732;2024-03-23T11:45:11;5.03;;;4.57;;
5754;SDS011;2902;42.130;24.732;2024-03-23T11:47:39;5.13;;;4.73;;
5754;SDS011;2902;42.130;24.732;2024-03-23T11:50:05;4.93;;;4.53;;
5754;SDS011;2902;42.130;24.732;2024-03-23T11:52:31;4.83;;;4.43;;
5754;SDS011;2902;42.130;24.732;2024-03-23T11:55:02;5.23;;;4.73;;
5754;SDS011;2902;42.130;24.732;2024-03-23T11:57:30;5.13;;;4.73;;
5754;SDS011;2902;42.130;24.732;2024-03-23T11:59:57;5.80;;;4.90;;
5754;SDS011;2902;42.130;24.732;2024-03-23T12:02:24;5.80;;;4.50;;
5754;SDS011;2902;42.130;24.732;2024-03-23T12:04:50;10.97;;;5.17;;
5754;SDS011;2902;42.130;24.732;2024-03-23T12:07:17;4.57;;;4.27;;
5754;SDS011;2902;42.130;24.732;2024-03-23T12:09:44;5.30;;;4.80;;
5754;SDS011;2902;42.130;24.732;2024-03-23T12:12:13;6.13;;;4.30;;
5754;SDS011;2902;42.130;24.732;2024-03-23T12:14:40;5.93;;;4.50;;
5754;SDS011;2902;42.130;24.732;2024-03-23T12:17:12;4.60;;;4.30;;
5754;SDS011;2902;42.130;24.732;2024-03-23T12:19:38;5.50;;;4.27;;
5754;SDS011;2902;42.130;24.732;2024-03-23T12:22:06;4.73;;;4.20;;
5754;SDS011;2902;42.130;24.732;2024-03-23T12:24:33;3.97;;;3.70;;
5754;SDS011;2902;42.130;24.732;2024-03-23T12:27:00;4.87;;;4.00;;
5754;SDS011;2902;42.130;24.732;2024-03-23T12:29:28;3.70;;;3.40;;
5754;SDS011;2902;42.130;24.732;2024-03-23T12:31:56;4.47;;;3.97;;
5754;SDS011;2902;42.130;24.732;2024-03-23T12:34:23;6.33;;;3.97;;
5754;SDS011;2902;42.130;24.732;2024-03-23T12:36:50;3.93;;;3.53;;
5754;SDS011;2902;42.130;24.732;2024-03-23T12:39:16;7.60;;;3.77;;
5754;SDS011;2902;42.130;24.732;2024-03-23T12:41:43;3.90;;;3.60;;
5754;SDS011;2902;42.130;24.732;2024-03-23T12:44:09;3.53;;;3.23;;
5754;SDS011;2902;42.130;24.732;2024-03-23T12:46:37;4.47;;;4.10;;
5754;SDS011;2902;42.130;24.732;2024-03-23T12:49:02;3.80;;;3.50;;
5754;SDS011;2902;42.130;24.732;2024-03-23T12:51:31;4.00;;;3.50;;
5754;SDS011;2902;42.130;24.732;2024-03-23T12:54:14;3.60;;;3.40;;
5754;SDS011;2902;42.130;24.732;2024-03-23T12:56:41;7.73;;;5.83;;
5754;SDS011;2902;42.130;24.732;2024-03-23T12:59:06;3.33;;;3.13;;
5754;SDS011;2902;42.130;24.732;2024-03-23T13:01:33;4.17;;;3.77;;
5754;SDS011;2902;42.130;24.732;2024-03-23T13:03:59;4.20;;;3.70;;
5754;SDS011;2902;42.130;24.732;2024-03-23T13:06:26;8.80;;;5.07;;
5754;SDS011;2902;42.130;24.732;2024-03-23T13:08:54;3.70;;;3.50;;
5754;SDS011;2902;42.130;24.732;2024-03-23T13:11:20;3.57;;;3.33;;
5754;SDS011;2902;42.130;24.732;2024-03-23T13:13:46;3.30;;;3.00;;
5754;SDS011;2902;42.130;24.732;2024-03-23T13:16:13;3.67;;;3.27;;
5754;SDS011;2902;42.130;24.732;2024-03-23T13:18:39;4.40;;;3.13;;
5754;SDS011;2902;42.130;24.732;2024-03-23T13:21:05;3.37;;;2.93;;
5754;SDS011;2902;42.130;24.732;2024-03-23T13:23:31;3.07;;;2.87;;
5754;SDS011;2902;42.130;24.732;2024-03-23T13:26:02;4.00;;;3.07;;
5754;SDS011;2902;42.130;24.732;2024-03-23T13:28:28;4.47;;;3.00;;
5754;SDS011;2902;42.130;24.732;2024-03-23T13:30:55;5.67;;;3.43;;
5754;SDS011;2902;42.130;24.732;2024-03-23T13:33:22;6.07;;;3.70;;
5754;SDS011;2902;42.130;24.732;2024-03-23T13:35:50;4.10;;;3.90;;
5754;SDS011;2902;42.130;24.732;2024-03-23T13:38:15;5.60;;;3.67;;
5754;SDS011;2902;42.130;24.732;2024-03-23T13:40:49;3.43;;;3.23;;
5754;SDS011;2902;42.130;24.732;2024-03-23T13:43:19;4.40;;;4.10;;
5754;SDS011;2902;42.130;24.732;2024-03-23T13:45:46;3.67;;;3.47;;
5754;SDS011;2902;42.130;24.732;2024-03-23T13:48:12;3.43;;;3.23;;
5754;SDS011;2902;42.130;24.732;2024-03-23T13:50:39;3.20;;;3.00;;
5754;SDS011;2902;42.130;24.732;2024-03-23T13:53:05;4.37;;;3.83;;
5754;SDS011;2902;42.130;24.732;2024-03-23T13:55:33;5.90;;;5.30;;
5754;SDS011;2902;42.130;24.732;2024-03-23T13:57:59;5.37;;;4.97;;
5754;SDS011;2902;42.130;24.732;2024-03-23T14:00:27;5.13;;;4.57;;
5754;SDS011;2902;42.130;24.732;2024-03-23T14:02:52;6.47;;;4.93;;
5754;SDS011;2902;42.130;24.732;2024-03-23T14:05:19;5.20;;;4.80;;
5754;SDS011;2902;42.130;24.732;2024-03-23T14:07:45;8.40;;;4.60;;
5754;SDS011;2902;42.130;24.732;2024-03-23T14:10:11;5.20;;;3.90;;
5754;SDS011;2902;42.130;24.732;2024-03-23T14:12:38;3.93;;;3.53;;
5754;SDS011;2902;42.130;24.732;2024-03-23T14:15:05;4.17;;;3.90;;
5754;SDS011;2902;42.130;24.732;2024-03-23T14:17:32;3.90;;;3.57;;
5754;SDS011;2902;42.130;24.732;2024-03-23T14:19:59;3.53;;;3.23;;
5754;SDS011;2902;42.130;24.732;2024-03-23T14:22:26;4.87;;;3.27;;
5754;SDS011;2902;42.130;24.732;2024-03-23T14:24:53;5.47;;;3.17;;
5754;SDS011;2902;42.130;24.732;2024-03-23T14:27:19;3.47;;;2.83;;
5754;SDS011;2902;42.130;24.732;2024-03-23T14:29:46;6.53;;;3.10;;
5754;SDS011;2902;42.130;24.732;2024-03-23T14:32:12;3.10;;;2.90;;
5754;SDS011;2902;42.130;24.732;2024-03-23T14:34:41;8.47;;;3.63;;
5754;SDS011;2902;42.130;24.732;2024-03-23T14:37:08;3.43;;;3.17;;
5754;SDS011;2902;42.130;24.732;2024-03-23T14:39:33;3.17;;;2.97;;
5754;SDS011;2902;42.130;24.732;2024-03-23T14:42:00;7.37;;;3.20;;
5754;SDS011;2902;42.130;24.732;2024-03-23T14:44:27;3.60;;;3.30;;
5754;SDS011;2902;42.130;24.732;2024-03-23T14:46:54;3.40;;;3.10;;
5754;SDS011;2902;42.130;24.732;2024-03-23T14:49:20;2.97;;;2.73;;
5754;SDS011;2902;42.130;24.732;2024-03-23T14:51:49;3.27;;;3.07;;
5754;SDS011;2902;42.130;24.732;2024-03-23T14:54:15;5.47;;;2.60;;
5754;SDS011;2902;42.130;24.732;2024-03-23T14:56:42;3.23;;;2.93;;
5754;SDS011;2902;42.130;24.732;2024-03-23T14:59:07;3.97;;;2.70;;
5754;SDS011;2902;42.130;24.732;2024-03-23T15:01:34;2.60;;;2.40;;
5754;SDS011;2902;42.130;24.732;2024-03-23T15:04:00;2.37;;;2.27;;
5754;SDS011;2902;42.130;24.732;2024-03-23T15:06:29;5.73;;;4.03;;
5754;SDS011;2902;42.130;24.732;2024-03-23T15:08:56;9.07;;;8.17;;
5754;SDS011;2902;42.130;24.732;2024-03-23T15:11:22;2.40;;;2.30;;
5754;SDS011;2902;42.130;24.732;2024-03-23T15:13:49;2.30;;;2.20;;
5754;SDS011;2902;42.130;24.732;2024-03-23T15:16:16;2.70;;;2.50;;
5754;SDS011;2902;42.130;24.732;2024-03-23T15:18:43;3.50;;;3.20;;
5754;SDS011;2902;42.130;24.732;2024-03-23T15:21:10;3.23;;;2.90;;
5754;SDS011;2902;42.130;24.732;2024-03-23T15:23:36;3.13;;;2.93;;
5754;SDS011;2902;42.130;24.732;2024-03-23T15:26:04;5.70;;;3.00;;
5754;SDS011;2902;42.130;24.732;2024-03-23T15:28:31;2.77;;;2.57;;
5754;SDS011;2902;42.130;24.732;2024-03-23T15:31:06;2.67;;;2.43;;
5754;SDS011;2902;42.130;24.732;2024-03-23T15:33:34;2.43;;;2.33;;
5754;SDS011;2902;42.130;24.732;2024-03-23T15:36:01;5.03;;;2.70;;
5754;SDS011;2902;42.130;24.732;2024-03-23T15:38:27;4.77;;;3.73;;
5754;SDS011;2902;42.130;24.732;2024-03-23T15:40:55;2.40;;;2.20;;
5754;SDS011;2902;42.130;24.732;2024-03-23T15:43:26;3.07;;;2.40;;
5754;SDS011;2902;42.130;24.732;2024-03-23T15:45:53;3.70;;;2.50;;
5754;SDS011;2902;42.130;24.732;2024-03-23T15:48:20;3.87;;;2.57;;
5754;SDS011;2902;42.130;24.732;2024-03-23T15:50:51;2.17;;;2.07;;